createdAt,value
2018-08-16T00:00:32.313Z,7.50
2018-08-16T00:03:00.145Z,8.33
2018-08-16T00:05:27.981Z,8.10
2018-08-16T00:07:55.845Z,7.53
2018-08-16T00:10:23.661Z,7.47
2018-08-16T00:12:51.773Z,8.90
2018-08-16T00:15:20.576Z,8.63
2018-08-16T00:17:48.405Z,7.43
2018-08-16T00:20:16.317Z,7.13
2018-08-16T00:22:44.369Z,7.30
2018-08-16T00:25:12.620Z,8.00
2018-08-16T00:27:40.445Z,6.87
2018-08-16T00:30:09.930Z,7.23
2018-08-16T00:32:37.757Z,7.77
2018-08-16T00:35:05.622Z,7.53
2018-08-16T00:37:33.450Z,7.60
2018-08-16T00:40:01.270Z,6.63
2018-08-16T00:42:32.317Z,7.17
2018-08-16T00:45:00.218Z,7.63
2018-08-16T00:47:28.033Z,7.33
2018-08-16T00:49:55.942Z,7.80
2018-08-16T00:52:23.773Z,7.70
2018-08-16T00:54:51.686Z,8.10
2018-08-16T00:57:19.510Z,7.13
2018-08-16T00:59:47.327Z,7.63
2018-08-16T01:02:15.157Z,6.80
2018-08-16T01:04:42.969Z,6.30
2018-08-16T01:07:10.801Z,6.53
2018-08-16T01:09:38.618Z,8.40
2018-08-16T01:12:06.453Z,7.57
2018-08-16T01:14:34.286Z,7.63
2018-08-16T01:17:02.110Z,6.67
2018-08-16T01:19:29.946Z,7.30
2018-08-16T01:21:57.763Z,7.40
2018-08-16T01:24:29.597Z,7.20
2018-08-16T01:26:57.400Z,7.67
2018-08-16T01:29:25.208Z,6.47
2018-08-16T01:31:53.016Z,7.60
2018-08-16T01:34:20.860Z,7.20
2018-08-16T01:36:48.669Z,8.00
2018-08-16T01:39:16.476Z,7.10
2018-08-16T01:41:44.281Z,8.00
2018-08-16T01:44:12.092Z,6.97
2018-08-16T01:46:39.891Z,6.80
2018-08-16T01:49:26.713Z,7.37
2018-08-16T01:51:54.904Z,7.10
2018-08-16T01:54:22.792Z,7.30
2018-08-16T01:56:50.697Z,7.60
2018-08-16T01:59:18.685Z,6.60
2018-08-16T02:01:46.489Z,7.23
2018-08-16T02:04:14.296Z,7.37
2018-08-16T02:06:42.106Z,6.87
2018-08-16T02:09:10.273Z,7.37
2018-08-16T02:11:38.468Z,8.13
2018-08-16T02:14:06.605Z,7.00
2018-08-16T02:16:34.424Z,6.50
2018-08-16T02:19:02.341Z,7.07
2018-08-16T02:21:30.745Z,7.10
2018-08-16T02:23:58.556Z,7.27
2018-08-16T02:26:26.360Z,6.77
2018-08-16T02:28:54.177Z,7.03
2018-08-16T02:31:21.980Z,6.30
2018-08-16T02:33:49.864Z,7.30
2018-08-16T02:36:17.665Z,7.43
2018-08-16T02:38:45.469Z,8.90
2018-08-16T02:41:13.312Z,8.03
2018-08-16T02:43:41.124Z,8.90
2018-08-16T02:46:08.949Z,8.73
2018-08-16T02:48:36.761Z,7.00
2018-08-16T02:51:04.589Z,7.47
2018-08-16T02:53:32.568Z,7.73
2018-08-16T02:56:00.373Z,7.90
2018-08-16T02:58:28.193Z,7.27
2018-08-16T03:00:56.008Z,7.40
2018-08-16T03:03:23.811Z,7.37
2018-08-16T03:05:51.612Z,8.20
2018-08-16T03:08:19.432Z,8.53
2018-08-16T03:10:47.237Z,8.90
2018-08-16T03:13:15.051Z,8.63
2018-08-16T03:15:42.856Z,7.70
2018-08-16T03:18:10.700Z,8.13
2018-08-16T03:20:38.620Z,7.90
2018-08-16T03:23:06.436Z,7.90
2018-08-16T03:25:34.257Z,7.57
2018-08-16T03:28:02.092Z,6.70
2018-08-16T03:30:29.937Z,7.23
2018-08-16T03:32:57.793Z,7.90
2018-08-16T03:35:25.663Z,8.60
2018-08-16T03:37:53.421Z,8.90
2018-08-16T03:40:21.233Z,9.10
2018-08-16T03:42:49.277Z,8.63
2018-08-16T03:45:17.085Z,8.10
2018-08-16T03:47:44.900Z,9.20
2018-08-16T03:50:12.745Z,8.70
2018-08-16T03:52:40.553Z,9.37
2018-08-16T03:55:08.383Z,9.37
2018-08-16T03:57:36.225Z,8.57
2018-08-16T04:00:04.793Z,9.13
2018-08-16T04:02:32.601Z,9.30
2018-08-16T04:05:00.413Z,9.70
2018-08-16T04:07:28.245Z,9.10
2018-08-16T04:09:56.056Z,9.47
2018-08-16T04:12:23.856Z,9.10
2018-08-16T04:14:52.033Z,8.77
2018-08-16T04:17:24.208Z,8.00
2018-08-16T04:19:52.016Z,7.10
2018-08-16T04:22:19.816Z,7.00
2018-08-16T04:24:47.620Z,7.50
2018-08-16T04:27:15.421Z,8.47
2018-08-16T04:29:43.230Z,6.83
2018-08-16T04:32:11.028Z,7.40
2018-08-16T04:34:38.841Z,7.10
2018-08-16T04:37:06.753Z,7.10
2018-08-16T04:39:34.559Z,5.73
2018-08-16T04:42:02.422Z,6.40
2018-08-16T04:44:30.171Z,5.00
2018-08-16T04:46:57.972Z,5.23
2018-08-16T04:49:25.783Z,5.50
2018-08-16T04:51:53.585Z,5.03
2018-08-16T04:54:21.404Z,5.27
2018-08-16T04:56:49.257Z,5.03
2018-08-16T04:59:17.060Z,4.60
2018-08-16T05:01:44.865Z,4.73
2018-08-16T05:04:12.672Z,5.00
2018-08-16T05:06:40.472Z,4.80
2018-08-16T05:09:08.819Z,4.43
2018-08-16T05:11:36.620Z,5.13
2018-08-16T05:14:04.532Z,5.00
2018-08-16T05:16:32.401Z,5.40
2018-08-16T05:19:00.196Z,4.50
2018-08-16T05:21:28.030Z,4.77
2018-08-16T05:23:55.919Z,5.20
2018-08-16T05:26:23.711Z,5.13
2018-08-16T05:28:51.532Z,7.43
2018-08-16T05:31:19.340Z,7.30
2018-08-16T05:33:47.253Z,7.03
2018-08-16T05:36:15.069Z,6.20
2018-08-16T05:38:42.872Z,6.43
2018-08-16T05:41:10.684Z,6.63
2018-08-16T05:43:38.511Z,7.50
2018-08-16T05:46:06.301Z,6.87
2018-08-16T05:48:34.108Z,6.93
2018-08-16T05:51:01.954Z,6.37
2018-08-16T05:53:29.760Z,7.80
2018-08-16T05:55:57.564Z,9.87
2018-08-16T05:58:25.376Z,9.93
2018-08-16T06:00:53.184Z,10.90
2018-08-16T06:03:20.992Z,10.57
2018-08-16T06:05:48.809Z,9.53
2018-08-16T06:08:16.644Z,9.10
2018-08-16T06:10:44.432Z,8.43
2018-08-16T06:13:12.240Z,9.00
2018-08-16T06:15:40.064Z,8.30
2018-08-16T06:18:07.873Z,7.23
2018-08-16T06:20:35.685Z,7.77
2018-08-16T06:23:03.484Z,6.73
2018-08-16T06:25:31.288Z,6.33
2018-08-16T06:27:59.093Z,6.47
2018-08-16T06:30:26.905Z,6.13
2018-08-16T06:32:54.700Z,6.07
2018-08-16T06:35:22.516Z,7.47
2018-08-16T06:37:50.319Z,6.00
2018-08-16T06:40:18.144Z,6.97
2018-08-16T06:42:47.092Z,5.77
2018-08-16T06:45:14.897Z,5.80
2018-08-16T06:47:42.700Z,6.73
2018-08-16T06:50:10.543Z,7.23
2018-08-16T06:52:38.472Z,6.90
2018-08-16T06:55:06.509Z,7.40
2018-08-16T06:57:34.319Z,5.80
2018-08-16T07:00:02.123Z,6.60
2018-08-16T07:02:29.933Z,5.57
2018-08-16T07:04:57.812Z,6.00
2018-08-16T07:07:25.820Z,5.60
2018-08-16T07:09:53.620Z,5.20
2018-08-16T07:12:21.560Z,5.33
2018-08-16T07:14:49.264Z,5.30
2018-08-16T07:17:17.076Z,4.20
2018-08-16T07:19:44.876Z,4.97
2018-08-16T07:22:12.830Z,5.57
2018-08-16T07:24:40.676Z,4.27
2018-08-16T07:27:08.440Z,4.33
2018-08-16T07:29:36.327Z,4.40
2018-08-16T07:32:04.136Z,4.87
2018-08-16T07:34:32.152Z,4.90
2018-08-16T07:36:59.964Z,4.33
2018-08-16T07:39:27.796Z,4.10
2018-08-16T07:41:55.600Z,3.03
2018-08-16T07:44:23.404Z,3.80
2018-08-16T07:46:51.244Z,3.47
2018-08-16T07:49:19.089Z,3.83
2018-08-16T07:51:46.974Z,4.10
2018-08-16T07:54:14.672Z,3.57
2018-08-16T07:56:42.478Z,3.20
2018-08-16T07:59:10.284Z,4.10
2018-08-16T08:01:38.096Z,3.63
2018-08-16T08:04:05.907Z,3.20
2018-08-16T08:06:33.746Z,2.90
2018-08-16T08:09:01.662Z,3.43
2018-08-16T08:11:30.288Z,3.00
2018-08-16T08:13:58.205Z,2.70
2018-08-16T08:16:26.127Z,2.30
2018-08-16T08:18:53.992Z,2.23
2018-08-16T08:21:21.824Z,2.80
2018-08-16T08:23:49.632Z,2.60
2018-08-16T08:26:17.440Z,2.83
2018-08-16T08:28:45.249Z,2.83
2018-08-16T08:31:13.174Z,2.30
2018-08-16T08:33:40.972Z,2.00
2018-08-16T08:36:14.500Z,2.43
2018-08-16T08:38:42.368Z,2.37
2018-08-16T08:41:10.115Z,2.60
2018-08-16T08:43:43.552Z,2.93
2018-08-16T08:46:11.357Z,2.53
2018-08-16T08:48:39.164Z,2.50
2018-08-16T08:51:06.972Z,2.27
2018-08-16T08:54:11.276Z,2.83
2018-08-16T08:56:44.776Z,3.20
2018-08-16T08:59:12.626Z,2.40
2018-08-16T09:01:40.397Z,2.70
2018-08-16T09:04:08.209Z,2.63
2018-08-16T09:06:36.023Z,2.60
2018-08-16T09:09:04.976Z,2.93
2018-08-16T09:11:38.507Z,2.37
2018-08-16T09:14:12.593Z,2.67
2018-08-16T09:16:41.369Z,2.70
2018-08-16T09:19:10.021Z,2.43
2018-08-16T09:21:37.849Z,3.40
2018-08-16T09:24:05.742Z,2.53
2018-08-16T09:26:39.484Z,2.43
2018-08-16T09:31:15.549Z,2.40
2018-08-16T09:33:49.065Z,2.70
2018-08-16T09:36:16.867Z,2.53
2018-08-16T09:38:44.668Z,2.87
2018-08-16T09:41:12.485Z,2.60
2018-08-16T09:43:40.284Z,2.33
2018-08-16T09:46:45.772Z,2.57
2018-08-16T09:49:14.112Z,2.90
2018-08-16T09:51:42.982Z,2.80
2018-08-16T09:54:10.921Z,2.73
2018-08-16T09:56:38.726Z,2.70
2018-08-16T09:59:07.625Z,3.57
2018-08-16T10:01:35.665Z,3.30
2018-08-16T10:04:04.154Z,2.77
2018-08-16T10:06:31.984Z,3.07
2018-08-16T10:08:59.830Z,3.00
2018-08-16T10:11:27.688Z,2.80
2018-08-16T10:13:57.244Z,3.07
2018-08-16T10:16:25.056Z,3.10
2018-08-16T10:18:53.044Z,3.00
2018-08-16T10:21:21.340Z,3.20
2018-08-16T10:23:49.173Z,2.47
2018-08-16T10:26:16.989Z,2.90
2018-08-16T10:28:45.067Z,3.00
2018-08-16T10:31:13.212Z,2.63
2018-08-16T10:33:41.411Z,3.40
2018-08-16T10:36:09.508Z,2.67
2018-08-16T10:38:38.216Z,2.83
2018-08-16T10:41:06.768Z,2.83
2018-08-16T10:43:35.045Z,2.33
2018-08-16T10:46:02.861Z,2.50
2018-08-16T10:48:31.009Z,2.70
2018-08-16T10:50:58.941Z,2.43
2018-08-16T10:53:27.203Z,3.10
2018-08-16T10:55:55.005Z,2.67
2018-08-16T10:58:22.821Z,2.77
2018-08-16T11:00:50.641Z,2.17
2018-08-16T11:03:18.444Z,2.90
2018-08-16T11:05:46.269Z,2.30
2018-08-16T11:08:14.072Z,2.77
2018-08-16T11:10:41.973Z,2.80
2018-08-16T11:13:09.777Z,2.47
2018-08-16T11:15:37.593Z,2.40
2018-08-16T11:18:06.261Z,2.37
2018-08-16T11:20:34.084Z,2.80
2018-08-16T11:23:01.887Z,2.87
2018-08-16T11:25:29.700Z,2.37
2018-08-16T11:27:57.516Z,2.30
2018-08-16T11:30:25.333Z,2.63
2018-08-16T11:32:53.176Z,2.93
2018-08-16T11:35:21.013Z,2.43
2018-08-16T11:37:48.887Z,2.03
2018-08-16T11:40:16.649Z,2.30
2018-08-16T11:42:44.468Z,2.40
2018-08-16T11:45:12.285Z,2.47
2018-08-16T11:47:40.080Z,2.20
2018-08-16T11:50:07.892Z,2.07
2018-08-16T11:52:35.692Z,2.30
2018-08-16T11:55:03.541Z,2.00
2018-08-16T11:57:31.396Z,2.47
2018-08-16T11:59:59.212Z,2.10
2018-08-16T12:02:27.016Z,2.63
2018-08-16T12:04:54.874Z,2.13
2018-08-16T12:07:22.690Z,1.93
2018-08-16T12:09:50.493Z,2.20
2018-08-16T12:12:18.388Z,1.80
2018-08-16T12:14:46.250Z,2.40
2018-08-16T12:17:14.014Z,2.00
2018-08-16T12:19:42.392Z,3.33
2018-08-16T12:22:10.272Z,2.00
2018-08-16T12:24:38.081Z,2.20
2018-08-16T12:27:06.165Z,2.13
2018-08-16T12:29:34.052Z,2.07
2018-08-16T12:32:01.869Z,1.80
2018-08-16T12:34:29.668Z,2.10
2018-08-16T12:36:57.484Z,1.83
2018-08-16T12:39:25.281Z,2.00
2018-08-16T12:41:53.100Z,1.90
2018-08-16T12:44:21.362Z,1.97
2018-08-16T12:46:49.164Z,1.90
2018-08-16T12:49:16.981Z,1.70
2018-08-16T12:51:44.880Z,2.00
2018-08-16T12:54:12.681Z,1.87
2018-08-16T12:56:40.493Z,1.93
2018-08-16T12:59:08.333Z,2.37
2018-08-16T13:01:36.213Z,2.43
2018-08-16T13:04:04.164Z,2.10
2018-08-16T13:06:32.119Z,1.83
2018-08-16T13:08:59.982Z,1.73
2018-08-16T13:11:27.760Z,1.87
2018-08-16T13:13:55.565Z,1.93
2018-08-16T13:16:23.449Z,2.00
2018-08-16T13:18:51.275Z,1.77
2018-08-16T13:21:19.082Z,1.97
2018-08-16T13:23:46.884Z,2.13
2018-08-16T13:26:14.709Z,2.00
2018-08-16T13:28:42.519Z,2.60
2018-08-16T13:31:10.349Z,1.90
2018-08-16T13:33:38.180Z,2.03
2018-08-16T13:36:06.061Z,2.40
2018-08-16T13:38:33.870Z,2.17
2018-08-16T13:41:01.672Z,2.20
2018-08-16T13:43:29.477Z,2.30
2018-08-16T13:45:57.288Z,1.90
2018-08-16T13:48:25.131Z,2.00
2018-08-16T13:50:52.978Z,1.97
2018-08-16T13:53:20.736Z,1.90
2018-08-16T13:55:48.544Z,1.67
2018-08-16T13:58:16.380Z,1.80
2018-08-16T14:00:44.197Z,2.10
2018-08-16T14:03:12.001Z,2.20
2018-08-16T14:05:39.832Z,1.77
2018-08-16T14:08:07.870Z,2.30
2018-08-16T14:10:35.692Z,2.20
2018-08-16T14:13:03.505Z,2.30
2018-08-16T14:15:31.317Z,1.80
2018-08-16T14:17:59.125Z,2.00
2018-08-16T14:20:26.940Z,2.20
2018-08-16T14:22:54.753Z,2.37
2018-08-16T14:25:22.576Z,2.00
2018-08-16T14:27:50.396Z,1.90
2018-08-16T14:30:18.252Z,2.30
2018-08-16T14:32:46.061Z,1.83
2018-08-16T14:35:13.868Z,1.70
2018-08-16T14:37:41.693Z,1.60
2018-08-16T14:40:09.520Z,2.07
2018-08-16T14:42:37.337Z,2.03
2018-08-16T14:45:05.809Z,1.70
2018-08-16T14:47:33.627Z,2.13
2018-08-16T14:50:01.510Z,1.57
2018-08-16T14:52:29.349Z,2.00
2018-08-16T14:54:57.160Z,1.83
2018-08-16T14:57:24.997Z,1.93
2018-08-16T14:59:53.005Z,2.47
2018-08-16T15:02:20.816Z,1.63
2018-08-16T15:04:48.648Z,1.60
2018-08-16T15:07:16.453Z,1.93
2018-08-16T15:09:44.276Z,1.50
2018-08-16T15:12:12.090Z,1.90
2018-08-16T15:14:39.893Z,2.00
2018-08-16T15:17:07.721Z,1.73
2018-08-16T15:19:35.526Z,2.00
2018-08-16T15:22:03.360Z,1.67
2018-08-16T15:24:31.168Z,1.80
2018-08-16T15:26:58.973Z,2.00
2018-08-16T15:29:26.819Z,1.90
2018-08-16T15:31:54.612Z,1.73
2018-08-16T15:34:22.413Z,1.60
2018-08-16T15:36:50.236Z,1.90
2018-08-16T15:39:18.044Z,1.90
2018-08-16T15:41:45.896Z,1.70
2018-08-16T15:44:13.697Z,2.10
2018-08-16T15:46:41.564Z,2.10
2018-08-16T15:49:09.372Z,2.70
2018-08-16T15:51:37.181Z,2.17
2018-08-16T15:54:05.521Z,1.80
2018-08-16T15:56:33.332Z,2.30
2018-08-16T15:59:01.266Z,2.13
2018-08-16T16:01:29.076Z,1.97
2018-08-16T16:03:56.961Z,2.40
2018-08-16T16:06:24.901Z,2.17
2018-08-16T16:08:52.749Z,1.90
2018-08-16T16:11:20.643Z,2.17
2018-08-16T16:13:48.557Z,2.20
2018-08-16T16:16:16.360Z,2.07
2018-08-16T16:18:49.896Z,2.10
2018-08-16T16:21:17.801Z,2.40
2018-08-16T16:23:45.628Z,2.20
2018-08-16T16:26:13.432Z,1.90
2018-08-16T16:28:41.280Z,2.50
2018-08-16T16:31:09.085Z,2.00
2018-08-16T16:33:36.900Z,2.27
2018-08-16T16:36:10.103Z,2.03
2018-08-16T16:38:43.508Z,2.20
2018-08-16T16:41:11.896Z,2.17
2018-08-16T16:43:40.624Z,2.80
2018-08-16T16:46:08.518Z,2.40
2018-08-16T16:48:36.339Z,2.57
2018-08-16T16:51:04.144Z,2.57
2018-08-16T16:53:31.963Z,2.40
2018-08-16T16:55:59.781Z,2.87
2018-08-16T16:58:27.605Z,2.70
2018-08-16T17:00:55.409Z,2.63
2018-08-16T17:03:23.273Z,2.33
2018-08-16T17:05:51.073Z,2.70
2018-08-16T17:08:18.888Z,2.77
2018-08-16T17:10:46.700Z,2.23
2018-08-16T17:13:14.517Z,2.57
2018-08-16T17:15:51.495Z,2.90
2018-08-16T17:18:19.649Z,2.50
2018-08-16T17:20:47.442Z,2.73
2018-08-16T17:23:15.257Z,2.77
2018-08-16T17:25:43.068Z,2.80
2018-08-16T17:28:10.963Z,3.00
2018-08-16T17:30:38.777Z,2.40
2018-08-16T17:33:06.604Z,2.87
2018-08-16T17:35:34.412Z,3.13
2018-08-16T17:38:02.232Z,2.83
2018-08-16T17:40:30.117Z,2.27
2018-08-16T17:42:57.941Z,3.00
2018-08-16T17:45:25.800Z,3.30
2018-08-16T17:47:53.696Z,3.17
2018-08-16T17:50:21.499Z,2.63
2018-08-16T17:52:49.321Z,3.40
2018-08-16T17:55:17.129Z,3.57
2018-08-16T17:57:44.960Z,3.50
2018-08-16T18:00:12.785Z,3.70
2018-08-16T18:02:40.945Z,5.50
2018-08-16T18:05:08.838Z,4.73
2018-08-16T18:07:36.765Z,4.33
2018-08-16T18:10:04.989Z,3.93
2018-08-16T18:12:32.792Z,3.70
2018-08-16T18:15:00.612Z,3.00
2018-08-16T18:17:28.425Z,3.60
2018-08-16T18:19:56.245Z,3.47
2018-08-16T18:22:24.045Z,3.30
2018-08-16T18:24:51.865Z,3.67
2018-08-16T18:27:19.884Z,3.50
2018-08-16T18:29:47.732Z,3.83
2018-08-16T18:32:15.536Z,3.23
2018-08-16T18:34:43.360Z,3.47
2018-08-16T18:37:11.169Z,3.23
2018-08-16T18:39:39.080Z,3.53
2018-08-16T18:42:06.880Z,3.77
2018-08-16T18:44:34.696Z,3.53
2018-08-16T18:47:02.507Z,3.30
2018-08-16T18:49:30.336Z,3.53
2018-08-16T18:51:58.172Z,4.00
2018-08-16T18:54:25.994Z,3.73
2018-08-16T18:56:53.796Z,3.80
2018-08-16T18:59:21.652Z,3.27
2018-08-16T19:01:49.443Z,3.33
2018-08-16T19:04:17.271Z,3.63
2018-08-16T19:06:45.085Z,3.60
2018-08-16T19:09:12.901Z,3.90
2018-08-16T19:11:40.748Z,3.83
2018-08-16T19:14:15.151Z,3.90
2018-08-16T19:16:42.961Z,3.70
2018-08-16T19:19:10.769Z,3.30
2018-08-16T19:21:38.573Z,4.50
2018-08-16T19:24:06.397Z,3.67
2018-08-16T19:26:34.384Z,3.77
2018-08-16T19:29:02.349Z,3.70
2018-08-16T19:31:36.299Z,3.43
2018-08-16T19:34:09.756Z,3.60
2018-08-16T19:36:42.568Z,4.23
2018-08-16T19:39:11.952Z,3.70
2018-08-16T19:41:40.194Z,4.00
2018-08-16T19:44:08.156Z,4.00
2018-08-16T19:46:35.980Z,3.83
2018-08-16T19:49:03.996Z,4.93
2018-08-16T19:51:31.817Z,4.70
2018-08-16T19:54:02.905Z,4.43
2018-08-16T19:56:36.049Z,4.53
2018-08-16T19:59:10.809Z,4.77
2018-08-16T20:01:39.117Z,5.00
2018-08-16T20:04:06.820Z,4.30
2018-08-16T20:06:38.136Z,4.60
2018-08-16T20:09:07.541Z,4.63
2018-08-16T20:11:35.372Z,5.07
2018-08-16T20:14:03.356Z,4.77
2018-08-16T20:16:31.257Z,4.67
2018-08-16T20:18:59.057Z,4.67
2018-08-16T20:21:26.952Z,5.43
2018-08-16T20:23:54.780Z,4.90
2018-08-16T20:26:22.672Z,4.80
2018-08-16T20:28:51.433Z,5.13
2018-08-16T20:31:21.086Z,5.40
2018-08-16T20:33:48.973Z,4.90
2018-08-16T20:36:16.889Z,5.40
2018-08-16T20:38:44.693Z,5.37
2018-08-16T20:41:12.520Z,5.10
2018-08-16T20:43:40.352Z,5.33
2018-08-16T20:46:08.168Z,5.60
2018-08-16T20:48:35.972Z,5.60
2018-08-16T20:51:04.385Z,5.10
2018-08-16T20:53:32.349Z,5.40
2018-08-16T20:56:00.463Z,5.20
2018-08-16T20:58:28.370Z,6.57
2018-08-16T21:00:56.469Z,5.60
2018-08-16T21:03:24.312Z,6.70
2018-08-16T21:05:52.136Z,5.60
2018-08-16T21:08:20.237Z,6.07
2018-08-16T21:10:48.052Z,6.63
2018-08-16T21:13:15.905Z,7.63
2018-08-16T21:15:43.721Z,5.00
2018-08-16T21:18:11.520Z,5.83
2018-08-16T21:20:39.429Z,6.20
2018-08-16T21:23:07.553Z,6.23
2018-08-16T21:25:35.432Z,5.90
2018-08-16T21:28:03.310Z,6.60
2018-08-16T21:30:31.245Z,6.50
2018-08-16T21:32:59.032Z,6.23
2018-08-16T21:35:26.841Z,6.20
2018-08-16T21:37:54.645Z,6.70
2018-08-16T21:40:22.454Z,6.60
2018-08-16T21:42:50.276Z,5.90
2018-08-16T21:45:18.079Z,5.07
2018-08-16T21:47:45.888Z,6.00
2018-08-16T21:50:13.781Z,6.20
2018-08-16T21:52:41.588Z,5.10
2018-08-16T21:55:09.393Z,5.73
2018-08-16T21:57:37.237Z,5.87
2018-08-16T22:00:05.700Z,6.00
2018-08-16T22:02:33.517Z,6.03
2018-08-16T22:05:01.336Z,5.50
2018-08-16T22:08:07.977Z,5.53
2018-08-16T22:10:35.776Z,5.50
2018-08-16T22:13:03.860Z,5.60
2018-08-16T22:15:31.700Z,5.30
2018-08-16T22:17:59.560Z,5.30
2018-08-16T22:20:27.348Z,6.17
2018-08-16T22:22:55.152Z,4.70
2018-08-16T22:25:22.957Z,6.43
2018-08-16T22:27:50.770Z,4.93
2018-08-16T22:30:18.575Z,5.30
2018-08-16T22:32:47.305Z,6.40
2018-08-16T22:35:15.213Z,5.00
2018-08-16T22:37:43.028Z,5.60
2018-08-16T22:40:10.849Z,5.90
2018-08-16T22:42:39.001Z,4.93
2018-08-16T22:45:06.809Z,5.50
2018-08-16T22:47:34.620Z,5.40
2018-08-16T22:50:02.441Z,5.57
2018-08-16T22:52:30.252Z,4.80
2018-08-16T22:54:58.076Z,5.40
2018-08-16T22:57:25.986Z,4.83
2018-08-16T22:59:53.789Z,5.03
2018-08-16T23:02:21.668Z,5.20
2018-08-16T23:04:49.473Z,5.20
2018-08-16T23:07:17.282Z,4.73
2018-08-16T23:09:45.085Z,5.57
2018-08-16T23:12:12.888Z,5.20
2018-08-16T23:14:40.691Z,4.80
2018-08-16T23:17:08.507Z,4.97
2018-08-16T23:19:36.308Z,5.50
2018-08-16T23:22:04.124Z,5.50
2018-08-16T23:24:31.924Z,4.97
2018-08-16T23:26:59.744Z,4.80
2018-08-16T23:29:27.548Z,5.07
2018-08-16T23:31:55.358Z,4.83
2018-08-16T23:34:23.168Z,5.00
2018-08-16T23:36:50.980Z,4.60
2018-08-16T23:39:18.794Z,5.30
2018-08-16T23:41:46.659Z,4.67
2018-08-16T23:44:14.472Z,5.00
2018-08-16T23:46:42.281Z,4.67
2018-08-16T23:49:10.096Z,5.50
2018-08-16T23:51:37.900Z,4.50
2018-08-16T23:54:05.821Z,4.23
2018-08-16T23:56:33.618Z,4.50
2018-08-16T23:59:01.437Z,5.30
